sensor_id;sensor_type;location;lat;lon;timestamp;P1;durP1;ratioP1;P2;durP2;ratioP2
7267;SDS011;3675;43.276;27.962;2024-02-26T00:02:13;11.68;;;7.57;;
7267;SDS011;3675;43.276;27.962;2024-02-26T00:04:56;15.43;;;7.50;;
7267;SDS011;3675;43.276;27.962;2024-02-26T00:07:39;12.95;;;7.97;;
7267;SDS011;3675;43.276;27.962;2024-02-26T00:10:13;17.15;;;7.47;;
7267;SDS011;3675;43.276;27.962;2024-02-26T00:12:55;9.75;;;6.40;;
7267;SDS011;3675;43.276;27.962;2024-02-26T00:15:37;10.80;;;6.60;;
7267;SDS011;3675;43.276;27.962;2024-02-26T00:18:14;13.95;;;8.32;;
7267;SDS011;3675;43.276;27.962;2024-02-26T00:20:55;16.23;;;8.52;;
7267;SDS011;3675;43.276;27.962;2024-02-26T00:23:27;12.40;;;8.55;;
7267;SDS011;3675;43.276;27.962;2024-02-26T00:26:22;11.15;;;7.50;;
7267;SDS011;3675;43.276;27.962;2024-02-26T00:29:06;14.85;;;8.10;;
7267;SDS011;3675;43.276;27.962;2024-02-26T00:31:49;15.82;;;9.38;;
7267;SDS011;3675;43.276;27.962;2024-02-26T00:34:35;17.52;;;9.32;;
7267;SDS011;3675;43.276;27.962;2024-02-26T00:39:58;17.48;;;10.13;;
7267;SDS011;3675;43.276;27.962;2024-02-26T00:42:34;19.25;;;9.65;;
7267;SDS011;3675;43.276;27.962;2024-02-26T00:45:22;16.50;;;9.50;;
7267;SDS011;3675;43.276;27.962;2024-02-26T00:47:59;20.63;;;10.65;;
7267;SDS011;3675;43.276;27.962;2024-02-26T00:50:39;15.73;;;10.55;;
7267;SDS011;3675;43.276;27.962;2024-02-26T00:53:29;17.23;;;9.48;;
7267;SDS011;3675;43.276;27.962;2024-02-26T00:56:18;15.80;;;8.70;;
7267;SDS011;3675;43.276;27.962;2024-02-26T00:58:59;12.13;;;8.73;;
7267;SDS011;3675;43.276;27.962;2024-02-26T01:01:44;16.98;;;9.25;;
7267;SDS011;3675;43.276;27.962;2024-02-26T01:04:17;17.30;;;9.40;;
7267;SDS011;3675;43.276;27.962;2024-02-26T01:07:10;18.35;;;10.13;;
7267;SDS011;3675;43.276;27.962;2024-02-26T01:09:58;14.98;;;9.23;;
7267;SDS011;3675;43.276;27.962;2024-02-26T01:12:47;12.98;;;9.50;;
7267;SDS011;3675;43.276;27.962;2024-02-26T01:15:26;16.38;;;9.23;;
7267;SDS011;3675;43.276;27.962;2024-02-26T01:18:20;15.18;;;9.43;;
7267;SDS011;3675;43.276;27.962;2024-02-26T01:21:00;13.30;;;8.70;;
7267;SDS011;3675;43.276;27.962;2024-02-26T01:24:15;14.85;;;9.13;;
7267;SDS011;3675;43.276;27.962;2024-02-26T01:26:52;14.07;;;8.93;;
7267;SDS011;3675;43.276;27.962;2024-02-26T01:29:37;14.02;;;9.07;;
7267;SDS011;3675;43.276;27.962;2024-02-26T01:32:24;13.32;;;8.02;;
7267;SDS011;3675;43.276;27.962;2024-02-26T01:35:00;11.50;;;8.45;;
7267;SDS011;3675;43.276;27.962;2024-02-26T01:40:53;11.57;;;7.45;;
7267;SDS011;3675;43.276;27.962;2024-02-26T01:43:38;15.10;;;9.52;;
7267;SDS011;3675;43.276;27.962;2024-02-26T01:46:35;13.32;;;8.88;;
7267;SDS011;3675;43.276;27.962;2024-02-26T01:49:15;14.32;;;8.77;;
7267;SDS011;3675;43.276;27.962;2024-02-26T01:51:58;15.20;;;9.73;;
7267;SDS011;3675;43.276;27.962;2024-02-26T01:54:39;14.90;;;9.60;;
7267;SDS011;3675;43.276;27.962;2024-02-26T01:57:21;13.82;;;9.00;;
7267;SDS011;3675;43.276;27.962;2024-02-26T02:00:12;13.88;;;8.55;;
7267;SDS011;3675;43.276;27.962;2024-02-26T02:02:52;13.00;;;9.43;;
7267;SDS011;3675;43.276;27.962;2024-02-26T02:05:28;15.52;;;9.57;;
7267;SDS011;3675;43.276;27.962;2024-02-26T02:08:19;16.40;;;9.35;;
7267;SDS011;3675;43.276;27.962;2024-02-26T02:10:58;16.98;;;9.50;;
7267;SDS011;3675;43.276;27.962;2024-02-26T02:13:35;14.23;;;9.85;;
7267;SDS011;3675;43.276;27.962;2024-02-26T02:16:37;16.20;;;9.88;;
7267;SDS011;3675;43.276;27.962;2024-02-26T02:19:28;15.95;;;10.50;;
7267;SDS011;3675;43.276;27.962;2024-02-26T02:22:18;20.20;;;10.52;;
7267;SDS011;3675;43.276;27.962;2024-02-26T02:24:57;18.48;;;9.85;;
7267;SDS011;3675;43.276;27.962;2024-02-26T02:27:40;17.02;;;10.82;;
7267;SDS011;3675;43.276;27.962;2024-02-26T02:30:20;16.00;;;10.15;;
7267;SDS011;3675;43.276;27.962;2024-02-26T02:33:04;14.73;;;9.10;;
7267;SDS011;3675;43.276;27.962;2024-02-26T02:35:43;16.88;;;10.00;;
7267;SDS011;3675;43.276;27.962;2024-02-26T02:38:31;17.23;;;9.15;;
7267;SDS011;3675;43.276;27.962;2024-02-26T02:41:09;16.33;;;9.93;;
7267;SDS011;3675;43.276;27.962;2024-02-26T02:44:02;18.13;;;10.38;;
7267;SDS011;3675;43.276;27.962;2024-02-26T02:46:38;16.73;;;9.88;;
7267;SDS011;3675;43.276;27.962;2024-02-26T02:49:12;14.77;;;9.90;;
7267;SDS011;3675;43.276;27.962;2024-02-26T02:51:56;13.25;;;8.90;;
7267;SDS011;3675;43.276;27.962;2024-02-26T02:54:43;16.00;;;9.50;;
7267;SDS011;3675;43.276;27.962;2024-02-26T02:57:18;17.67;;;9.52;;
7267;SDS011;3675;43.276;27.962;2024-02-26T02:59:58;15.68;;;10.90;;
7267;SDS011;3675;43.276;27.962;2024-02-26T03:02:42;18.67;;;12.15;;
7267;SDS011;3675;43.276;27.962;2024-02-26T03:05:25;22.83;;;14.52;;
7267;SDS011;3675;43.276;27.962;2024-02-26T03:07:58;20.52;;;10.90;;
7267;SDS011;3675;43.276;27.962;2024-02-26T03:10:45;17.38;;;9.88;;
7267;SDS011;3675;43.276;27.962;2024-02-26T03:13:28;15.02;;;8.90;;
7267;SDS011;3675;43.276;27.962;2024-02-26T03:16:11;15.13;;;9.93;;
7267;SDS011;3675;43.276;27.962;2024-02-26T03:18:47;13.85;;;10.43;;
7267;SDS011;3675;43.276;27.962;2024-02-26T03:21:22;12.07;;;8.73;;
7267;SDS011;3675;43.276;27.962;2024-02-26T03:23:59;18.48;;;10.20;;
7267;SDS011;3675;43.276;27.962;2024-02-26T03:26:44;23.17;;;14.00;;
7267;SDS011;3675;43.276;27.962;2024-02-26T03:29:25;20.55;;;13.25;;
7267;SDS011;3675;43.276;27.962;2024-02-26T03:32:02;16.80;;;10.27;;
7267;SDS011;3675;43.276;27.962;2024-02-26T03:34:44;17.83;;;10.25;;
7267;SDS011;3675;43.276;27.962;2024-02-26T03:37:25;16.63;;;10.07;;
7267;SDS011;3675;43.276;27.962;2024-02-26T03:40:03;17.75;;;10.02;;
7267;SDS011;3675;43.276;27.962;2024-02-26T03:42:46;17.80;;;9.98;;
7267;SDS011;3675;43.276;27.962;2024-02-26T03:45:28;26.35;;;14.15;;
7267;SDS011;3675;43.276;27.962;2024-02-26T03:48:05;21.92;;;12.43;;
7267;SDS011;3675;43.276;27.962;2024-02-26T03:50:44;14.05;;;9.13;;
7267;SDS011;3675;43.276;27.962;2024-02-26T03:53:29;16.77;;;9.68;;
7267;SDS011;3675;43.276;27.962;2024-02-26T03:56:06;16.23;;;8.52;;
7267;SDS011;3675;43.276;27.962;2024-02-26T03:58:50;13.93;;;8.20;;
7267;SDS011;3675;43.276;27.962;2024-02-26T04:01:30;20.40;;;7.68;;
7267;SDS011;3675;43.276;27.962;2024-02-26T04:04:34;13.43;;;7.90;;
7267;SDS011;3675;43.276;27.962;2024-02-26T04:07:12;21.10;;;7.43;;
7267;SDS011;3675;43.276;27.962;2024-02-26T04:09:45;15.40;;;7.05;;
7267;SDS011;3675;43.276;27.962;2024-02-26T04:12:25;15.80;;;7.18;;
7267;SDS011;3675;43.276;27.962;2024-02-26T04:15:35;16.42;;;7.47;;
7267;SDS011;3675;43.276;27.962;2024-02-26T04:18:16;14.90;;;8.23;;
7267;SDS011;3675;43.276;27.962;2024-02-26T04:21:03;15.52;;;7.10;;
7267;SDS011;3675;43.276;27.962;2024-02-26T04:23:46;14.25;;;5.88;;
7267;SDS011;3675;43.276;27.962;2024-02-26T04:26:26;13.68;;;7.28;;
7267;SDS011;3675;43.276;27.962;2024-02-26T04:29:04;12.20;;;6.90;;
7267;SDS011;3675;43.276;27.962;2024-02-26T04:31:46;15.20;;;6.22;;
7267;SDS011;3675;43.276;27.962;2024-02-26T04:34:29;11.32;;;6.93;;
7267;SDS011;3675;43.276;27.962;2024-02-26T04:37:07;13.18;;;6.78;;
7267;SDS011;3675;43.276;27.962;2024-02-26T04:39:46;9.48;;;5.82;;
7267;SDS011;3675;43.276;27.962;2024-02-26T04:42:23;12.82;;;6.45;;
7267;SDS011;3675;43.276;27.962;2024-02-26T04:45:01;10.23;;;6.35;;
7267;SDS011;3675;43.276;27.962;2024-02-26T04:47:41;12.02;;;6.10;;
7267;SDS011;3675;43.276;27.962;2024-02-26T04:50:31;12.20;;;7.32;;
7267;SDS011;3675;43.276;27.962;2024-02-26T04:53:14;10.98;;;7.10;;
7267;SDS011;3675;43.276;27.962;2024-02-26T04:56:07;15.70;;;7.43;;
7267;SDS011;3675;43.276;27.962;2024-02-26T04:58:57;13.20;;;6.30;;
7267;SDS011;3675;43.276;27.962;2024-02-26T05:05:04;14.85;;;6.43;;
7267;SDS011;3675;43.276;27.962;2024-02-26T05:07:42;15.90;;;8.90;;
7267;SDS011;3675;43.276;27.962;2024-02-26T05:10:16;20.65;;;10.15;;
7267;SDS011;3675;43.276;27.962;2024-02-26T05:13:05;15.00;;;10.13;;
7267;SDS011;3675;43.276;27.962;2024-02-26T05:15:54;17.88;;;8.25;;
7267;SDS011;3675;43.276;27.962;2024-02-26T05:18:37;15.50;;;7.88;;
7267;SDS011;3675;43.276;27.962;2024-02-26T05:21:41;23.02;;;10.32;;
7267;SDS011;3675;43.276;27.962;2024-02-26T05:27:45;33.90;;;11.45;;
7267;SDS011;3675;43.276;27.962;2024-02-26T05:30:42;25.67;;;10.82;;
7267;SDS011;3675;43.276;27.962;2024-02-26T05:33:28;31.13;;;11.32;;
7267;SDS011;3675;43.276;27.962;2024-02-26T05:36:19;46.85;;;12.57;;
7267;SDS011;3675;43.276;27.962;2024-02-26T05:39:06;26.80;;;10.05;;
7267;SDS011;3675;43.276;27.962;2024-02-26T05:44:40;12.25;;;6.38;;
7267;SDS011;3675;43.276;27.962;2024-02-26T05:47:34;17.17;;;6.63;;
7267;SDS011;3675;43.276;27.962;2024-02-26T05:53:18;28.92;;;8.32;;
7267;SDS011;3675;43.276;27.962;2024-02-26T05:56:31;17.95;;;7.28;;
7267;SDS011;3675;43.276;27.962;2024-02-26T05:59:22;18.27;;;6.57;;
7267;SDS011;3675;43.276;27.962;2024-02-26T06:02:09;19.77;;;6.22;;
7267;SDS011;3675;43.276;27.962;2024-02-26T06:05:10;15.27;;;7.03;;
7267;SDS011;3675;43.276;27.962;2024-02-26T06:07:57;14.88;;;6.82;;
7267;SDS011;3675;43.276;27.962;2024-02-26T06:10:53;15.95;;;6.68;;
7267;SDS011;3675;43.276;27.962;2024-02-26T06:13:38;14.82;;;6.72;;
7267;SDS011;3675;43.276;27.962;2024-02-26T06:16:13;16.38;;;6.72;;
7267;SDS011;3675;43.276;27.962;2024-02-26T06:19:01;16.30;;;6.40;;
7267;SDS011;3675;43.276;27.962;2024-02-26T06:21:45;13.25;;;6.97;;
7267;SDS011;3675;43.276;27.962;2024-02-26T06:24:24;18.05;;;7.90;;
7267;SDS011;3675;43.276;27.962;2024-02-26T06:27:14;15.25;;;6.25;;
7267;SDS011;3675;43.276;27.962;2024-02-26T06:30:05;16.98;;;6.38;;
7267;SDS011;3675;43.276;27.962;2024-02-26T06:35:33;19.65;;;6.32;;
7267;SDS011;3675;43.276;27.962;2024-02-26T06:38:18;13.38;;;6.50;;
7267;SDS011;3675;43.276;27.962;2024-02-26T06:41:03;17.77;;;6.22;;
7267;SDS011;3675;43.276;27.962;2024-02-26T06:43:48;15.93;;;6.60;;
7267;SDS011;3675;43.276;27.962;2024-02-26T06:46:47;15.20;;;6.68;;
7267;SDS011;3675;43.276;27.962;2024-02-26T06:49:31;17.70;;;6.80;;
7267;SDS011;3675;43.276;27.962;2024-02-26T06:52:17;16.40;;;6.25;;
7267;SDS011;3675;43.276;27.962;2024-02-26T06:54:53;11.68;;;5.68;;
7267;SDS011;3675;43.276;27.962;2024-02-26T06:57:39;12.10;;;5.88;;
7267;SDS011;3675;43.276;27.962;2024-02-26T07:00:36;10.18;;;5.30;;
7267;SDS011;3675;43.276;27.962;2024-02-26T07:03:29;13.45;;;5.55;;
7267;SDS011;3675;43.276;27.962;2024-02-26T07:06:06;14.07;;;5.65;;
7267;SDS011;3675;43.276;27.962;2024-02-26T07:08:52;11.88;;;6.35;;
7267;SDS011;3675;43.276;27.962;2024-02-26T07:11:25;14.55;;;6.90;;
7267;SDS011;3675;43.276;27.962;2024-02-26T07:14:05;10.98;;;4.85;;
7267;SDS011;3675;43.276;27.962;2024-02-26T07:17:07;13.32;;;5.20;;
7267;SDS011;3675;43.276;27.962;2024-02-26T07:19:49;13.93;;;5.47;;
7267;SDS011;3675;43.276;27.962;2024-02-26T07:22:43;9.90;;;4.78;;
7267;SDS011;3675;43.276;27.962;2024-02-26T07:25:26;13.68;;;4.90;;
7267;SDS011;3675;43.276;27.962;2024-02-26T07:28:10;8.88;;;4.80;;
7267;SDS011;3675;43.276;27.962;2024-02-26T07:30:55;10.50;;;4.75;;
7267;SDS011;3675;43.276;27.962;2024-02-26T07:33:29;12.70;;;5.35;;
7267;SDS011;3675;43.276;27.962;2024-02-26T07:36:19;8.10;;;4.00;;
7267;SDS011;3675;43.276;27.962;2024-02-26T07:39:13;9.25;;;4.88;;
7267;SDS011;3675;43.276;27.962;2024-02-26T07:41:54;8.85;;;5.68;;
7267;SDS011;3675;43.276;27.962;2024-02-26T07:44:37;9.43;;;4.43;;
7267;SDS011;3675;43.276;27.962;2024-02-26T07:47:38;10.38;;;5.15;;
7267;SDS011;3675;43.276;27.962;2024-02-26T07:50:27;7.32;;;4.38;;
7267;SDS011;3675;43.276;27.962;2024-02-26T07:53:27;8.70;;;4.80;;
7267;SDS011;3675;43.276;27.962;2024-02-26T07:56:19;10.98;;;5.10;;
7267;SDS011;3675;43.276;27.962;2024-02-26T07:59:06;9.27;;;4.38;;
7267;SDS011;3675;43.276;27.962;2024-02-26T08:01:59;10.85;;;4.68;;
7267;SDS011;3675;43.276;27.962;2024-02-26T08:07:16;8.68;;;4.55;;
7267;SDS011;3675;43.276;27.962;2024-02-26T08:10:02;9.20;;;4.57;;
7267;SDS011;3675;43.276;27.962;2024-02-26T08:12:53;8.15;;;4.47;;
7267;SDS011;3675;43.276;27.962;2024-02-26T08:15:44;8.60;;;4.63;;
7267;SDS011;3675;43.276;27.962;2024-02-26T08:18:38;8.55;;;4.07;;
7267;SDS011;3675;43.276;27.962;2024-02-26T08:21:13;8.10;;;4.40;;
7267;SDS011;3675;43.276;27.962;2024-02-26T08:23:53;8.52;;;4.22;;
7267;SDS011;3675;43.276;27.962;2024-02-26T08:26:52;6.50;;;3.92;;
7267;SDS011;3675;43.276;27.962;2024-02-26T08:29:44;5.38;;;3.80;;
7267;SDS011;3675;43.276;27.962;2024-02-26T08:32:30;8.60;;;4.53;;
7267;SDS011;3675;43.276;27.962;2024-02-26T08:35:23;8.20;;;3.80;;
7267;SDS011;3675;43.276;27.962;2024-02-26T08:38:15;4.45;;;3.30;;
7267;SDS011;3675;43.276;27.962;2024-02-26T08:40:53;10.48;;;4.45;;
7267;SDS011;3675;43.276;27.962;2024-02-26T08:43:43;10.05;;;3.90;;
7267;SDS011;3675;43.276;27.962;2024-02-26T08:46:29;10.85;;;4.43;;
7267;SDS011;3675;43.276;27.962;2024-02-26T08:49:09;10.30;;;3.95;;
7267;SDS011;3675;43.276;27.962;2024-02-26T08:51:54;13.85;;;4.82;;
7267;SDS011;3675;43.276;27.962;2024-02-26T08:54:41;9.90;;;3.80;;
7267;SDS011;3675;43.276;27.962;2024-02-26T08:57:22;10.00;;;4.43;;
7267;SDS011;3675;43.276;27.962;2024-02-26T09:00:22;7.53;;;3.97;;
7267;SDS011;3675;43.276;27.962;2024-02-26T09:03:13;7.63;;;4.05;;
7267;SDS011;3675;43.276;27.962;2024-02-26T09:05:52;10.70;;;4.20;;
7267;SDS011;3675;43.276;27.962;2024-02-26T09:08:48;13.68;;;4.25;;
7267;SDS011;3675;43.276;27.962;2024-02-26T09:11:32;9.48;;;4.20;;
7267;SDS011;3675;43.276;27.962;2024-02-26T09:14:15;5.97;;;4.35;;
7267;SDS011;3675;43.276;27.962;2024-02-26T09:17:01;12.68;;;4.40;;
7267;SDS011;3675;43.276;27.962;2024-02-26T09:19:33;10.38;;;4.10;;
7267;SDS011;3675;43.276;27.962;2024-02-26T09:22:17;12.77;;;4.07;;
7267;SDS011;3675;43.276;27.962;2024-02-26T09:25:09;12.10;;;5.05;;
7267;SDS011;3675;43.276;27.962;2024-02-26T09:27:57;8.00;;;4.32;;
7267;SDS011;3675;43.276;27.962;2024-02-26T09:30:38;9.35;;;4.18;;
7267;SDS011;3675;43.276;27.962;2024-02-26T09:33:16;9.68;;;4.25;;
7267;SDS011;3675;43.276;27.962;2024-02-26T09:35:51;15.25;;;5.50;;
7267;SDS011;3675;43.276;27.962;2024-02-26T09:38:59;10.15;;;4.60;;
7267;SDS011;3675;43.276;27.962;2024-02-26T09:42:10;10.02;;;5.57;;
7267;SDS011;3675;43.276;27.962;2024-02-26T09:45:17;8.45;;;4.20;;
7267;SDS011;3675;43.276;27.962;2024-02-26T09:48:01;8.02;;;4.15;;
7267;SDS011;3675;43.276;27.962;2024-02-26T09:50:43;9.90;;;3.78;;
7267;SDS011;3675;43.276;27.962;2024-02-26T09:53:26;11.23;;;3.88;;
7267;SDS011;3675;43.276;27.962;2024-02-26T09:56:20;5.63;;;3.42;;
7267;SDS011;3675;43.276;27.962;2024-02-26T09:59:27;8.75;;;5.32;;
7267;SDS011;3675;43.276;27.962;2024-02-26T10:02:19;8.80;;;3.92;;
7267;SDS011;3675;43.276;27.962;2024-02-26T10:05:09;9.05;;;4.38;;
7267;SDS011;3675;43.276;27.962;2024-02-26T10:07:51;8.05;;;3.95;;
7267;SDS011;3675;43.276;27.962;2024-02-26T10:10:35;9.98;;;4.40;;
7267;SDS011;3675;43.276;27.962;2024-02-26T10:13:14;12.13;;;4.68;;
7267;SDS011;3675;43.276;27.962;2024-02-26T10:15:49;10.25;;;3.70;;
7267;SDS011;3675;43.276;27.962;2024-02-26T10:18:23;7.22;;;3.70;;
7267;SDS011;3675;43.276;27.962;2024-02-26T10:21:30;8.25;;;3.72;;
7267;SDS011;3675;43.276;27.962;2024-02-26T10:24:25;8.77;;;4.35;;
7267;SDS011;3675;43.276;27.962;2024-02-26T10:27:25;11.95;;;5.30;;
7267;SDS011;3675;43.276;27.962;2024-02-26T10:30:22;7.38;;;4.40;;
7267;SDS011;3675;43.276;27.962;2024-02-26T10:33:07;14.00;;;5.40;;
7267;SDS011;3675;43.276;27.962;2024-02-26T10:35:50;8.35;;;3.75;;
7267;SDS011;3675;43.276;27.962;2024-02-26T10:38:29;5.72;;;3.65;;
7267;SDS011;3675;43.276;27.962;2024-02-26T10:41:14;7.53;;;3.67;;
7267;SDS011;3675;43.276;27.962;2024-02-26T10:43:47;10.57;;;4.80;;
7267;SDS011;3675;43.276;27.962;2024-02-26T10:46:30;9.55;;;5.38;;
7267;SDS011;3675;43.276;27.962;2024-02-26T10:49:12;8.60;;;4.32;;
7267;SDS011;3675;43.276;27.962;2024-02-26T10:51:59;5.25;;;4.15;;
7267;SDS011;3675;43.276;27.962;2024-02-26T10:54:36;7.85;;;3.75;;
7267;SDS011;3675;43.276;27.962;2024-02-26T10:57:31;6.32;;;3.28;;
7267;SDS011;3675;43.276;27.962;2024-02-26T11:00:17;7.63;;;4.20;;
7267;SDS011;3675;43.276;27.962;2024-02-26T11:02:57;6.18;;;3.47;;
7267;SDS011;3675;43.276;27.962;2024-02-26T11:05:31;6.45;;;3.83;;
7267;SDS011;3675;43.276;27.962;2024-02-26T11:08:12;8.30;;;4.15;;
7267;SDS011;3675;43.276;27.962;2024-02-26T11:11:09;8.13;;;4.53;;
7267;SDS011;3675;43.276;27.962;2024-02-26T11:13:55;8.25;;;4.40;;
7267;SDS011;3675;43.276;27.962;2024-02-26T11:16:43;8.55;;;4.10;;
7267;SDS011;3675;43.276;27.962;2024-02-26T11:19:31;6.55;;;3.75;;
7267;SDS011;3675;43.276;27.962;2024-02-26T11:22:09;10.70;;;3.67;;
7267;SDS011;3675;43.276;27.962;2024-02-26T11:25:05;5.75;;;3.45;;
7267;SDS011;3675;43.276;27.962;2024-02-26T11:28:03;6.63;;;4.15;;
7267;SDS011;3675;43.276;27.962;2024-02-26T11:30:52;7.43;;;3.67;;
7267;SDS011;3675;43.276;27.962;2024-02-26T11:33:35;6.47;;;3.75;;
7267;SDS011;3675;43.276;27.962;2024-02-26T11:36:11;11.18;;;5.68;;
7267;SDS011;3675;43.276;27.962;2024-02-26T11:38:53;9.05;;;3.88;;
7267;SDS011;3675;43.276;27.962;2024-02-26T11:41:36;9.40;;;4.68;;
7267;SDS011;3675;43.276;27.962;2024-02-26T11:44:11;6.40;;;4.38;;
7267;SDS011;3675;43.276;27.962;2024-02-26T11:47:17;8.27;;;4.20;;
7267;SDS011;3675;43.276;27.962;2024-02-26T11:49:57;8.40;;;3.80;;
7267;SDS011;3675;43.276;27.962;2024-02-26T11:52:34;9.88;;;3.67;;
7267;SDS011;3675;43.276;27.962;2024-02-26T11:55:40;5.22;;;3.72;;
7267;SDS011;3675;43.276;27.962;2024-02-26T11:58:41;8.13;;;3.90;;
7267;SDS011;3675;43.276;27.962;2024-02-26T12:01:49;7.43;;;3.40;;
7267;SDS011;3675;43.276;27.962;2024-02-26T12:04:38;7.60;;;3.90;;
7267;SDS011;3675;43.276;27.962;2024-02-26T12:07:26;7.70;;;4.00;;
7267;SDS011;3675;43.276;27.962;2024-02-26T12:10:22;11.25;;;4.18;;
7267;SDS011;3675;43.276;27.962;2024-02-26T12:13:05;10.75;;;4.63;;
7267;SDS011;3675;43.276;27.962;2024-02-26T12:15:54;9.88;;;3.90;;
7267;SDS011;3675;43.276;27.962;2024-02-26T12:18:35;7.75;;;3.95;;
7267;SDS011;3675;43.276;27.962;2024-02-26T12:21:21;6.10;;;4.13;;
7267;SDS011;3675;43.276;27.962;2024-02-26T12:24:13;7.13;;;3.88;;
7267;SDS011;3675;43.276;27.962;2024-02-26T12:26:56;6.10;;;4.60;;
7267;SDS011;3675;43.276;27.962;2024-02-26T12:29:33;10.15;;;4.03;;
7267;SDS011;3675;43.276;27.962;2024-02-26T12:32:11;9.57;;;4.05;;
7267;SDS011;3675;43.276;27.962;2024-02-26T12:35:09;12.15;;;3.85;;
7267;SDS011;3675;43.276;27.962;2024-02-26T12:38:05;8.75;;;4.35;;
7267;SDS011;3675;43.276;27.962;2024-02-26T12:41:13;7.95;;;4.35;;
7267;SDS011;3675;43.276;27.962;2024-02-26T12:43:55;7.25;;;3.38;;
7267;SDS011;3675;43.276;27.962;2024-02-26T12:46:44;14.55;;;4.78;;
7267;SDS011;3675;43.276;27.962;2024-02-26T12:49:31;9.93;;;4.43;;
7267;SDS011;3675;43.276;27.962;2024-02-26T12:52:21;8.45;;;4.15;;
7267;SDS011;3675;43.276;27.962;2024-02-26T12:58:20;7.13;;;3.85;;
7267;SDS011;3675;43.276;27.962;2024-02-26T13:00:58;10.13;;;4.82;;
7267;SDS011;3675;43.276;27.962;2024-02-26T13:03:45;12.65;;;4.28;;
7267;SDS011;3675;43.276;27.962;2024-02-26T13:06:31;11.32;;;4.53;;
7267;SDS011;3675;43.276;27.962;2024-02-26T13:09:19;7.28;;;4.03;;
7267;SDS011;3675;43.276;27.962;2024-02-26T13:12:12;12.82;;;4.38;;
7267;SDS011;3675;43.276;27.962;2024-02-26T13:15:04;13.95;;;4.60;;
7267;SDS011;3675;43.276;27.962;2024-02-26T13:17:46;10.70;;;4.80;;
7267;SDS011;3675;43.276;27.962;2024-02-26T13:20:35;8.48;;;3.95;;
7267;SDS011;3675;43.276;27.962;2024-02-26T13:23:43;12.07;;;4.72;;
7267;SDS011;3675;43.276;27.962;2024-02-26T13:26:33;7.10;;;4.32;;
7267;SDS011;3675;43.276;27.962;2024-02-26T13:29:15;8.73;;;5.38;;
7267;SDS011;3675;43.276;27.962;2024-02-26T13:32:22;8.13;;;4.97;;
7267;SDS011;3675;43.276;27.962;2024-02-26T13:35:11;14.68;;;5.35;;
7267;SDS011;3675;43.276;27.962;2024-02-26T13:37:49;12.98;;;5.90;;
7267;SDS011;3675;43.276;27.962;2024-02-26T13:40:26;10.50;;;5.20;;
7267;SDS011;3675;43.276;27.962;2024-02-26T13:42:59;10.15;;;5.28;;
7267;SDS011;3675;43.276;27.962;2024-02-26T13:45:42;10.90;;;5.00;;
7267;SDS011;3675;43.276;27.962;2024-02-26T13:48:21;13.75;;;5.57;;
7267;SDS011;3675;43.276;27.962;2024-02-26T13:51:04;16.15;;;5.82;;
7267;SDS011;3675;43.276;27.962;2024-02-26T13:54:00;15.27;;;6.78;;
7267;SDS011;3675;43.276;27.962;2024-02-26T13:56:43;12.60;;;6.10;;
7267;SDS011;3675;43.276;27.962;2024-02-26T13:59:32;14.07;;;7.05;;
7267;SDS011;3675;43.276;27.962;2024-02-26T14:05:11;14.90;;;6.53;;
7267;SDS011;3675;43.276;27.962;2024-02-26T14:07:46;16.45;;;7.05;;
7267;SDS011;3675;43.276;27.962;2024-02-26T14:10:37;15.48;;;6.05;;
7267;SDS011;3675;43.276;27.962;2024-02-26T14:13:23;10.32;;;5.45;;
7267;SDS011;3675;43.276;27.962;2024-02-26T14:16:18;13.75;;;6.68;;
7267;SDS011;3675;43.276;27.962;2024-02-26T14:19:12;10.27;;;5.70;;
7267;SDS011;3675;43.276;27.962;2024-02-26T14:22:00;13.38;;;7.50;;
7267;SDS011;3675;43.276;27.962;2024-02-26T14:24:45;10.88;;;5.90;;
7267;SDS011;3675;43.276;27.962;2024-02-26T14:27:30;11.13;;;6.30;;
7267;SDS011;3675;43.276;27.962;2024-02-26T14:30:13;14.57;;;6.88;;
7267;SDS011;3675;43.276;27.962;2024-02-26T14:32:58;16.52;;;8.02;;
7267;SDS011;3675;43.276;27.962;2024-02-26T14:35:37;10.45;;;6.45;;
7267;SDS011;3675;43.276;27.962;2024-02-26T14:38:16;13.45;;;6.72;;
7267;SDS011;3675;43.276;27.962;2024-02-26T14:40:55;13.80;;;6.90;;
7267;SDS011;3675;43.276;27.962;2024-02-26T14:43:31;18.17;;;8.88;;
7267;SDS011;3675;43.276;27.962;2024-02-26T14:46:23;15.23;;;7.30;;
7267;SDS011;3675;43.276;27.962;2024-02-26T14:49:00;21.45;;;7.95;;
7267;SDS011;3675;43.276;27.962;2024-02-26T14:51:47;18.20;;;9.30;;
7267;SDS011;3675;43.276;27.962;2024-02-26T14:54:33;24.08;;;9.32;;
7267;SDS011;3675;43.276;27.962;2024-02-26T14:57:17;11.43;;;6.25;;
7267;SDS011;3675;43.276;27.962;2024-02-26T14:59:57;11.82;;;6.95;;
7267;SDS011;3675;43.276;27.962;2024-02-26T15:02:46;13.10;;;6.55;;
7267;SDS011;3675;43.276;27.962;2024-02-26T15:05:28;12.27;;;6.47;;
7267;SDS011;3675;43.276;27.962;2024-02-26T15:08:07;15.75;;;7.15;;
7267;SDS011;3675;43.276;27.962;2024-02-26T15:10:56;16.77;;;7.22;;
7267;SDS011;3675;43.276;27.962;2024-02-26T15:13:38;14.20;;;7.65;;
7267;SDS011;3675;43.276;27.962;2024-02-26T15:16:25;14.00;;;7.15;;
7267;SDS011;3675;43.276;27.962;2024-02-26T15:19:15;17.85;;;7.78;;
7267;SDS011;3675;43.276;27.962;2024-02-26T15:22:00;14.23;;;8.27;;
7267;SDS011;3675;43.276;27.962;2024-02-26T15:24:50;22.23;;;12.15;;
7267;SDS011;3675;43.276;27.962;2024-02-26T15:27:48;19.75;;;8.63;;
7267;SDS011;3675;43.276;27.962;2024-02-26T15:30:30;15.10;;;8.07;;
7267;SDS011;3675;43.276;27.962;2024-02-26T15:33:06;17.88;;;8.77;;
7267;SDS011;3675;43.276;27.962;2024-02-26T15:35:50;17.15;;;8.93;;
7267;SDS011;3675;43.276;27.962;2024-02-26T15:38:30;16.83;;;8.00;;
7267;SDS011;3675;43.276;27.962;2024-02-26T15:41:25;20.88;;;8.07;;
7267;SDS011;3675;43.276;27.962;2024-02-26T15:44:06;14.15;;;7.15;;
7267;SDS011;3675;43.276;27.962;2024-02-26T15:46:55;22.40;;;10.35;;
7267;SDS011;3675;43.276;27.962;2024-02-26T15:49:43;23.20;;;9.48;;
7267;SDS011;3675;43.276;27.962;2024-02-26T15:52:30;22.70;;;11.07;;
7267;SDS011;3675;43.276;27.962;2024-02-26T15:55:19;23.17;;;10.90;;
7267;SDS011;3675;43.276;27.962;2024-02-26T15:58:13;27.38;;;11.65;;
7267;SDS011;3675;43.276;27.962;2024-02-26T16:01:17;15.73;;;9.48;;
7267;SDS011;3675;43.276;27.962;2024-02-26T16:04:13;18.80;;;8.32;;
7267;SDS011;3675;43.276;27.962;2024-02-26T16:06:58;11.32;;;7.32;;
7267;SDS011;3675;43.276;27.962;2024-02-26T16:09:50;14.98;;;6.90;;
7267;SDS011;3675;43.276;27.962;2024-02-26T16:12:59;15.60;;;6.95;;
7267;SDS011;3675;43.276;27.962;2024-02-26T16:18:29;14.15;;;7.03;;
7267;SDS011;3675;43.276;27.962;2024-02-26T16:21:08;11.73;;;6.00;;
7267;SDS011;3675;43.276;27.962;2024-02-26T16:23:53;10.63;;;6.53;;
7267;SDS011;3675;43.276;27.962;2024-02-26T16:26:40;14.20;;;6.43;;
7267;SDS011;3675;43.276;27.962;2024-02-26T16:29:14;14.48;;;7.28;;
7267;SDS011;3675;43.276;27.962;2024-02-26T16:32:06;13.38;;;5.97;;
7267;SDS011;3675;43.276;27.962;2024-02-26T16:35:03;16.33;;;6.57;;
7267;SDS011;3675;43.276;27.962;2024-02-26T16:38:04;13.85;;;7.05;;
7267;SDS011;3675;43.276;27.962;2024-02-26T16:40:36;13.85;;;9.63;;
7267;SDS011;3675;43.276;27.962;2024-02-26T16:43:17;15.05;;;7.82;;
7267;SDS011;3675;43.276;27.962;2024-02-26T16:46:02;16.88;;;6.53;;
7267;SDS011;3675;43.276;27.962;2024-02-26T16:48:51;12.48;;;6.32;;
7267;SDS011;3675;43.276;27.962;2024-02-26T16:51:30;15.13;;;6.95;;
7267;SDS011;3675;43.276;27.962;2024-02-26T16:54:09;12.07;;;6.65;;
7267;SDS011;3675;43.276;27.962;2024-02-26T16:56:50;16.65;;;7.32;;
7267;SDS011;3675;43.276;27.962;2024-02-26T16:59:31;17.27;;;7.65;;
7267;SDS011;3675;43.276;27.962;2024-02-26T17:02:08;15.93;;;7.20;;
7267;SDS011;3675;43.276;27.962;2024-02-26T17:05:11;17.05;;;6.72;;
7267;SDS011;3675;43.276;27.962;2024-02-26T17:07:55;21.20;;;8.25;;
7267;SDS011;3675;43.276;27.962;2024-02-26T17:10:27;15.35;;;6.88;;
7267;SDS011;3675;43.276;27.962;2024-02-26T17:13:33;10.98;;;6.25;;
7267;SDS011;3675;43.276;27.962;2024-02-26T17:16:07;16.23;;;6.40;;